sensor_id;sensor_type;location;lat;lon;timestamp;P1;durP1;ratioP1;P2;durP2;ratioP2
938;SDS011;456;53.584;9.968;2023-01-28T00:01:28;1.70;;;1.40;;
938;SDS011;456;53.584;9.968;2023-01-28T00:03:54;1.37;;;1.27;;
938;SDS011;456;53.584;9.968;2023-01-28T00:06:19;2.63;;;1.63;;
938;SDS011;456;53.584;9.968;2023-01-28T00:08:45;1.23;;;1.13;;
938;SDS011;456;53.584;9.968;2023-01-28T00:11:12;3.97;;;1.57;;
938;SDS011;456;53.584;9.968;2023-01-28T00:13:38;1.60;;;1.50;;
938;SDS011;456;53.584;9.968;2023-01-28T00:16:04;1.47;;;1.33;;
938;SDS011;456;53.584;9.968;2023-01-28T00:18:32;3.37;;;1.50;;
938;SDS011;456;53.584;9.968;2023-01-28T00:20:58;1.60;;;1.30;;
938;SDS011;456;53.584;9.968;2023-01-28T00:23:30;1.53;;;1.30;;
938;SDS011;456;53.584;9.968;2023-01-28T00:25:57;1.90;;;1.30;;
938;SDS011;456;53.584;9.968;2023-01-28T00:28:23;1.27;;;1.17;;
938;SDS011;456;53.584;9.968;2023-01-28T00:30:49;2.00;;;1.20;;
938;SDS011;456;53.584;9.968;2023-01-28T00:33:15;1.50;;;1.20;;
938;SDS011;456;53.584;9.968;2023-01-28T00:35:40;1.53;;;1.43;;
938;SDS011;456;53.584;9.968;2023-01-28T00:38:06;1.37;;;1.27;;
938;SDS011;456;53.584;9.968;2023-01-28T00:40:33;2.60;;;1.40;;
938;SDS011;456;53.584;9.968;2023-01-28T00:42:58;1.63;;;1.30;;
938;SDS011;456;53.584;9.968;2023-01-28T00:45:24;1.50;;;1.40;;
938;SDS011;456;53.584;9.968;2023-01-28T00:47:49;3.27;;;1.70;;
938;SDS011;456;53.584;9.968;2023-01-28T00:50:15;1.40;;;1.30;;
938;SDS011;456;53.584;9.968;2023-01-28T00:52:41;2.10;;;1.30;;
938;SDS011;456;53.584;9.968;2023-01-28T00:55:06;1.60;;;1.20;;
938;SDS011;456;53.584;9.968;2023-01-28T00:57:32;1.60;;;1.43;;
938;SDS011;456;53.584;9.968;2023-01-28T00:59:58;1.53;;;1.43;;
938;SDS011;456;53.584;9.968;2023-01-28T01:02:24;1.60;;;1.50;;
938;SDS011;456;53.584;9.968;2023-01-28T01:04:49;1.97;;;1.13;;
938;SDS011;456;53.584;9.968;2023-01-28T01:07:24;1.63;;;1.40;;
938;SDS011;456;53.584;9.968;2023-01-28T01:10:11;1.33;;;1.07;;
938;SDS011;456;53.584;9.968;2023-01-28T01:12:42;1.40;;;1.10;;
938;SDS011;456;53.584;9.968;2023-01-28T01:15:07;1.73;;;1.30;;
938;SDS011;456;53.584;9.968;2023-01-28T01:17:35;1.40;;;1.30;;
938;SDS011;456;53.584;9.968;2023-01-28T01:20:02;2.30;;;1.30;;
938;SDS011;456;53.584;9.968;2023-01-28T01:22:31;1.30;;;1.00;;
938;SDS011;456;53.584;9.968;2023-01-28T01:24:57;2.20;;;1.10;;
938;SDS011;456;53.584;9.968;2023-01-28T01:27:23;1.37;;;1.20;;
938;SDS011;456;53.584;9.968;2023-01-28T01:29:49;3.00;;;1.33;;
938;SDS011;456;53.584;9.968;2023-01-28T01:32:14;2.47;;;1.10;;
938;SDS011;456;53.584;9.968;2023-01-28T01:34:40;1.40;;;1.10;;
938;SDS011;456;53.584;9.968;2023-01-28T01:37:06;1.70;;;1.30;;
938;SDS011;456;53.584;9.968;2023-01-28T01:39:33;1.60;;;1.10;;
938;SDS011;456;53.584;9.968;2023-01-28T01:41:58;1.20;;;1.00;;
938;SDS011;456;53.584;9.968;2023-01-28T01:47:35;2.37;;;1.10;;
938;SDS011;456;53.584;9.968;2023-01-28T01:50:54;2.00;;;1.13;;
938;SDS011;456;53.584;9.968;2023-01-28T01:53:24;1.40;;;1.20;;
938;SDS011;456;53.584;9.968;2023-01-28T01:55:52;2.03;;;1.33;;
938;SDS011;456;53.584;9.968;2023-01-28T01:58:21;1.10;;;1.00;;
938;SDS011;456;53.584;9.968;2023-01-28T02:00:53;1.43;;;1.00;;
938;SDS011;456;53.584;9.968;2023-01-28T02:03:20;1.83;;;1.17;;
938;SDS011;456;53.584;9.968;2023-01-28T02:05:52;1.43;;;1.27;;
938;SDS011;456;53.584;9.968;2023-01-28T02:08:18;1.60;;;1.50;;
938;SDS011;456;53.584;9.968;2023-01-28T02:10:47;1.63;;;1.17;;
938;SDS011;456;53.584;9.968;2023-01-28T02:13:17;2.20;;;1.13;;
938;SDS011;456;53.584;9.968;2023-01-28T02:15:44;1.20;;;1.00;;
938;SDS011;456;53.584;9.968;2023-01-28T02:18:11;1.00;;;0.80;;
938;SDS011;456;53.584;9.968;2023-01-28T02:26:41;1.30;;;1.00;;
938;SDS011;456;53.584;9.968;2023-01-28T02:29:32;3.63;;;1.17;;
938;SDS011;456;53.584;9.968;2023-01-28T02:34:58;1.77;;;1.07;;
938;SDS011;456;53.584;9.968;2023-01-28T02:37:38;1.00;;;0.87;;
938;SDS011;456;53.584;9.968;2023-01-28T02:40:19;2.60;;;1.00;;
938;SDS011;456;53.584;9.968;2023-01-28T02:42:48;1.20;;;0.93;;
938;SDS011;456;53.584;9.968;2023-01-28T02:45:16;4.50;;;1.47;;
938;SDS011;456;53.584;9.968;2023-01-28T02:47:45;2.07;;;1.00;;
938;SDS011;456;53.584;9.968;2023-01-28T02:50:23;1.20;;;0.70;;
938;SDS011;456;53.584;9.968;2023-01-28T02:53:12;1.00;;;0.63;;
938;SDS011;456;53.584;9.968;2023-01-28T03:02:00;1.30;;;1.10;;
938;SDS011;456;53.584;9.968;2023-01-28T03:07:27;1.20;;;0.80;;
938;SDS011;456;53.584;9.968;2023-01-28T03:09:55;0.80;;;0.70;;
938;SDS011;456;53.584;9.968;2023-01-28T03:12:28;2.10;;;0.90;;
938;SDS011;456;53.584;9.968;2023-01-28T03:15:18;1.93;;;0.70;;
938;SDS011;456;53.584;9.968;2023-01-28T03:18:09;2.23;;;0.97;;
938;SDS011;456;53.584;9.968;2023-01-28T03:21:03;1.00;;;0.90;;
938;SDS011;456;53.584;9.968;2023-01-28T03:23:53;0.93;;;0.90;;
938;SDS011;456;53.584;9.968;2023-01-28T03:26:46;2.00;;;1.00;;
938;SDS011;456;53.584;9.968;2023-01-28T03:29:36;1.53;;;0.70;;
938;SDS011;456;53.584;9.968;2023-01-28T03:32:23;2.47;;;1.00;;
938;SDS011;456;53.584;9.968;2023-01-28T03:35:08;1.20;;;0.93;;
938;SDS011;456;53.584;9.968;2023-01-28T03:37:56;0.90;;;0.80;;
938;SDS011;456;53.584;9.968;2023-01-28T03:40:24;2.40;;;0.80;;
938;SDS011;456;53.584;9.968;2023-01-28T03:42:50;1.20;;;0.80;;
938;SDS011;456;53.584;9.968;2023-01-28T03:45:18;1.10;;;0.80;;
938;SDS011;456;53.584;9.968;2023-01-28T03:47:45;1.30;;;0.97;;
938;SDS011;456;53.584;9.968;2023-01-28T03:50:11;1.43;;;1.00;;
938;SDS011;456;53.584;9.968;2023-01-28T03:52:36;1.43;;;1.20;;
938;SDS011;456;53.584;9.968;2023-01-28T03:55:02;1.03;;;0.90;;
938;SDS011;456;53.584;9.968;2023-01-28T03:57:37;1.00;;;0.80;;
938;SDS011;456;53.584;9.968;2023-01-28T04:00:03;1.00;;;0.90;;
938;SDS011;456;53.584;9.968;2023-01-28T04:02:30;1.00;;;0.90;;
938;SDS011;456;53.584;9.968;2023-01-28T04:04:56;1.00;;;0.90;;
938;SDS011;456;53.584;9.968;2023-01-28T04:07:23;1.00;;;0.83;;
938;SDS011;456;53.584;9.968;2023-01-28T04:09:48;1.07;;;0.70;;
938;SDS011;456;53.584;9.968;2023-01-28T04:12:14;1.10;;;0.90;;
938;SDS011;456;53.584;9.968;2023-01-28T04:14:39;0.90;;;0.73;;
938;SDS011;456;53.584;9.968;2023-01-28T04:17:05;1.50;;;0.93;;
938;SDS011;456;53.584;9.968;2023-01-28T04:19:34;1.03;;;0.90;;
938;SDS011;456;53.584;9.968;2023-01-28T04:22:05;1.30;;;0.83;;
938;SDS011;456;53.584;9.968;2023-01-28T04:24:31;1.60;;;1.10;;
938;SDS011;456;53.584;9.968;2023-01-28T04:26:57;1.13;;;0.90;;
938;SDS011;456;53.584;9.968;2023-01-28T04:29:23;1.33;;;0.90;;
938;SDS011;456;53.584;9.968;2023-01-28T04:31:48;1.30;;;1.07;;
938;SDS011;456;53.584;9.968;2023-01-28T04:34:14;1.53;;;0.93;;
938;SDS011;456;53.584;9.968;2023-01-28T04:36:41;1.43;;;1.00;;
938;SDS011;456;53.584;9.968;2023-01-28T04:39:06;1.67;;;1.20;;
938;SDS011;456;53.584;9.968;2023-01-28T04:41:32;1.67;;;1.13;;
938;SDS011;456;53.584;9.968;2023-01-28T04:43:58;2.13;;;0.83;;
938;SDS011;456;53.584;9.968;2023-01-28T04:46:23;1.07;;;0.80;;
938;SDS011;456;53.584;9.968;2023-01-28T04:48:49;1.20;;;1.10;;
938;SDS011;456;53.584;9.968;2023-01-28T04:51:14;1.93;;;1.13;;
938;SDS011;456;53.584;9.968;2023-01-28T04:53:40;2.20;;;1.00;;
938;SDS011;456;53.584;9.968;2023-01-28T04:56:05;1.67;;;1.57;;
938;SDS011;456;53.584;9.968;2023-01-28T04:58:32;1.27;;;1.13;;
938;SDS011;456;53.584;9.968;2023-01-28T05:00:58;3.00;;;1.30;;
938;SDS011;456;53.584;9.968;2023-01-28T05:03:24;3.33;;;0.90;;
938;SDS011;456;53.584;9.968;2023-01-28T05:05:50;1.93;;;1.30;;
938;SDS011;456;53.584;9.968;2023-01-28T05:08:16;1.23;;;1.00;;
938;SDS011;456;53.584;9.968;2023-01-28T05:10:42;1.10;;;1.00;;
938;SDS011;456;53.584;9.968;2023-01-28T05:13:08;1.20;;;1.10;;
938;SDS011;456;53.584;9.968;2023-01-28T05:15:34;1.67;;;1.10;;
938;SDS011;456;53.584;9.968;2023-01-28T05:17:59;1.73;;;1.37;;
938;SDS011;456;53.584;9.968;2023-01-28T05:20:25;1.80;;;1.43;;
938;SDS011;456;53.584;9.968;2023-01-28T05:22:51;1.83;;;1.30;;
938;SDS011;456;53.584;9.968;2023-01-28T05:25:17;1.73;;;1.00;;
938;SDS011;456;53.584;9.968;2023-01-28T05:27:42;1.90;;;1.37;;
938;SDS011;456;53.584;9.968;2023-01-28T05:30:08;2.90;;;1.33;;
938;SDS011;456;53.584;9.968;2023-01-28T05:32:34;1.37;;;1.10;;
938;SDS011;456;53.584;9.968;2023-01-28T05:35:00;1.20;;;0.90;;
938;SDS011;456;53.584;9.968;2023-01-28T05:37:25;1.00;;;0.90;;
938;SDS011;456;53.584;9.968;2023-01-28T05:39:51;1.30;;;1.00;;
938;SDS011;456;53.584;9.968;2023-01-28T05:42:16;1.83;;;1.43;;
938;SDS011;456;53.584;9.968;2023-01-28T05:44:44;1.73;;;1.00;;
938;SDS011;456;53.584;9.968;2023-01-28T05:47:10;1.53;;;1.10;;
938;SDS011;456;53.584;9.968;2023-01-28T05:49:36;3.47;;;1.40;;
938;SDS011;456;53.584;9.968;2023-01-28T05:52:01;3.07;;;1.30;;
938;SDS011;456;53.584;9.968;2023-01-28T05:54:27;1.30;;;1.20;;
938;SDS011;456;53.584;9.968;2023-01-28T05:56:53;2.13;;;1.33;;
938;SDS011;456;53.584;9.968;2023-01-28T05:59:18;1.40;;;1.30;;
938;SDS011;456;53.584;9.968;2023-01-28T06:01:44;1.73;;;1.10;;
938;SDS011;456;53.584;9.968;2023-01-28T06:04:09;2.30;;;1.60;;
938;SDS011;456;53.584;9.968;2023-01-28T06:06:35;1.40;;;1.10;;
938;SDS011;456;53.584;9.968;2023-01-28T06:09:01;1.03;;;0.90;;
938;SDS011;456;53.584;9.968;2023-01-28T06:11:26;2.30;;;1.40;;
938;SDS011;456;53.584;9.968;2023-01-28T06:13:52;1.83;;;1.20;;
938;SDS011;456;53.584;9.968;2023-01-28T06:16:17;1.40;;;1.20;;
938;SDS011;456;53.584;9.968;2023-01-28T06:18:43;1.10;;;1.00;;
938;SDS011;456;53.584;9.968;2023-01-28T06:21:08;1.20;;;1.10;;
938;SDS011;456;53.584;9.968;2023-01-28T06:23:34;1.30;;;1.20;;
938;SDS011;456;53.584;9.968;2023-01-28T06:26:00;1.50;;;0.93;;
938;SDS011;456;53.584;9.968;2023-01-28T06:28:25;1.90;;;1.17;;
938;SDS011;456;53.584;9.968;2023-01-28T06:30:51;1.40;;;1.00;;
938;SDS011;456;53.584;9.968;2023-01-28T06:33:17;1.33;;;1.07;;
938;SDS011;456;53.584;9.968;2023-01-28T06:35:44;1.73;;;1.33;;
938;SDS011;456;53.584;9.968;2023-01-28T06:38:10;1.13;;;0.87;;
938;SDS011;456;53.584;9.968;2023-01-28T06:40:36;1.80;;;1.43;;
938;SDS011;456;53.584;9.968;2023-01-28T06:43:03;1.30;;;1.07;;
938;SDS011;456;53.584;9.968;2023-01-28T06:45:29;1.07;;;1.00;;
938;SDS011;456;53.584;9.968;2023-01-28T06:47:56;1.90;;;1.20;;
938;SDS011;456;53.584;9.968;2023-01-28T06:50:21;1.60;;;1.37;;
938;SDS011;456;53.584;9.968;2023-01-28T06:52:47;1.63;;;1.43;;
938;SDS011;456;53.584;9.968;2023-01-28T06:55:12;1.40;;;1.10;;
938;SDS011;456;53.584;9.968;2023-01-28T06:57:38;2.00;;;1.30;;
938;SDS011;456;53.584;9.968;2023-01-28T07:00:06;3.60;;;1.57;;
938;SDS011;456;53.584;9.968;2023-01-28T07:02:34;1.40;;;1.07;;
938;SDS011;456;53.584;9.968;2023-01-28T07:05:00;1.40;;;1.30;;
938;SDS011;456;53.584;9.968;2023-01-28T07:07:26;2.03;;;1.10;;
938;SDS011;456;53.584;9.968;2023-01-28T07:09:52;1.67;;;1.50;;
938;SDS011;456;53.584;9.968;2023-01-28T07:12:18;1.53;;;1.10;;
938;SDS011;456;53.584;9.968;2023-01-28T07:14:43;1.67;;;1.53;;
938;SDS011;456;53.584;9.968;2023-01-28T07:17:09;1.83;;;1.20;;
938;SDS011;456;53.584;9.968;2023-01-28T07:19:34;1.30;;;1.20;;
938;SDS011;456;53.584;9.968;2023-01-28T07:22:00;1.40;;;1.27;;
938;SDS011;456;53.584;9.968;2023-01-28T07:24:27;1.60;;;1.50;;
938;SDS011;456;53.584;9.968;2023-01-28T07:26:53;2.23;;;1.10;;
938;SDS011;456;53.584;9.968;2023-01-28T07:29:19;2.33;;;1.27;;
938;SDS011;456;53.584;9.968;2023-01-28T07:31:44;1.30;;;1.20;;
938;SDS011;456;53.584;9.968;2023-01-28T07:34:10;1.60;;;1.40;;
938;SDS011;456;53.584;9.968;2023-01-28T07:36:35;1.63;;;1.00;;
938;SDS011;456;53.584;9.968;2023-01-28T07:39:01;1.50;;;1.33;;
938;SDS011;456;53.584;9.968;2023-01-28T07:41:27;1.40;;;1.07;;
938;SDS011;456;53.584;9.968;2023-01-28T07:43:53;1.40;;;1.30;;
938;SDS011;456;53.584;9.968;2023-01-28T07:46:18;1.50;;;1.40;;
938;SDS011;456;53.584;9.968;2023-01-28T07:48:44;1.77;;;1.40;;
938;SDS011;456;53.584;9.968;2023-01-28T07:51:10;3.83;;;1.50;;
938;SDS011;456;53.584;9.968;2023-01-28T07:53:36;1.13;;;1.03;;
938;SDS011;456;53.584;9.968;2023-01-28T07:56:01;1.70;;;1.40;;
938;SDS011;456;53.584;9.968;2023-01-28T07:58:29;1.70;;;1.60;;
938;SDS011;456;53.584;9.968;2023-01-28T08:00:56;1.53;;;1.43;;
938;SDS011;456;53.584;9.968;2023-01-28T08:03:23;1.63;;;1.47;;
938;SDS011;456;53.584;9.968;2023-01-28T08:05:50;2.00;;;1.80;;
938;SDS011;456;53.584;9.968;2023-01-28T08:08:17;2.37;;;1.60;;
938;SDS011;456;53.584;9.968;2023-01-28T08:10:44;1.83;;;1.50;;
938;SDS011;456;53.584;9.968;2023-01-28T08:13:10;3.00;;;1.53;;
938;SDS011;456;53.584;9.968;2023-01-28T08:15:36;2.33;;;1.80;;
938;SDS011;456;53.584;9.968;2023-01-28T08:18:03;1.43;;;1.33;;
938;SDS011;456;53.584;9.968;2023-01-28T08:20:30;1.70;;;1.40;;
938;SDS011;456;53.584;9.968;2023-01-28T08:23:15;2.40;;;1.47;;
938;SDS011;456;53.584;9.968;2023-01-28T08:25:43;1.90;;;1.70;;
938;SDS011;456;53.584;9.968;2023-01-28T08:28:09;4.20;;;1.40;;
938;SDS011;456;53.584;9.968;2023-01-28T08:30:36;2.40;;;2.20;;
938;SDS011;456;53.584;9.968;2023-01-28T08:33:03;2.03;;;1.83;;
938;SDS011;456;53.584;9.968;2023-01-28T08:35:29;1.90;;;1.80;;
938;SDS011;456;53.584;9.968;2023-01-28T08:37:57;2.13;;;1.93;;
938;SDS011;456;53.584;9.968;2023-01-28T08:40:24;1.63;;;1.53;;
938;SDS011;456;53.584;9.968;2023-01-28T08:42:50;1.93;;;1.80;;
938;SDS011;456;53.584;9.968;2023-01-28T08:45:17;2.27;;;1.67;;
938;SDS011;456;53.584;9.968;2023-01-28T08:48:03;1.77;;;1.63;;
938;SDS011;456;53.584;9.968;2023-01-28T08:50:30;2.13;;;1.90;;
938;SDS011;456;53.584;9.968;2023-01-28T08:52:59;1.80;;;1.70;;
938;SDS011;456;53.584;9.968;2023-01-28T08:55:26;2.23;;;1.60;;
938;SDS011;456;53.584;9.968;2023-01-28T08:57:53;2.00;;;1.80;;
938;SDS011;456;53.584;9.968;2023-01-28T09:00:19;2.20;;;2.00;;
938;SDS011;456;53.584;9.968;2023-01-28T09:02:45;2.47;;;1.60;;
938;SDS011;456;53.584;9.968;2023-01-28T09:05:11;1.70;;;1.53;;
938;SDS011;456;53.584;9.968;2023-01-28T09:07:37;2.13;;;1.93;;
938;SDS011;456;53.584;9.968;2023-01-28T09:10:03;2.20;;;1.80;;
938;SDS011;456;53.584;9.968;2023-01-28T09:12:30;2.10;;;1.90;;
938;SDS011;456;53.584;9.968;2023-01-28T09:14:56;2.10;;;1.90;;
938;SDS011;456;53.584;9.968;2023-01-28T09:17:22;1.90;;;1.60;;
938;SDS011;456;53.584;9.968;2023-01-28T09:19:48;2.10;;;1.90;;
938;SDS011;456;53.584;9.968;2023-01-28T09:22:14;2.20;;;1.80;;
938;SDS011;456;53.584;9.968;2023-01-28T09:24:39;1.63;;;1.53;;
938;SDS011;456;53.584;9.968;2023-01-28T09:27:05;2.57;;;2.23;;
938;SDS011;456;53.584;9.968;2023-01-28T09:29:32;2.50;;;2.27;;
938;SDS011;456;53.584;9.968;2023-01-28T09:31:58;3.13;;;2.70;;
938;SDS011;456;53.584;9.968;2023-01-28T09:34:24;2.20;;;1.90;;
938;SDS011;456;53.584;9.968;2023-01-28T09:36:49;1.90;;;1.80;;
938;SDS011;456;53.584;9.968;2023-01-28T09:39:15;2.30;;;2.10;;
938;SDS011;456;53.584;9.968;2023-01-28T09:46:58;2.40;;;2.20;;
938;SDS011;456;53.584;9.968;2023-01-28T09:49:43;2.60;;;2.40;;
938;SDS011;456;53.584;9.968;2023-01-28T09:52:13;2.57;;;2.17;;
938;SDS011;456;53.584;9.968;2023-01-28T09:54:44;2.80;;;2.50;;
938;SDS011;456;53.584;9.968;2023-01-28T09:57:21;2.47;;;2.17;;
938;SDS011;456;53.584;9.968;2023-01-28T09:59:48;2.47;;;2.27;;
938;SDS011;456;53.584;9.968;2023-01-28T10:10:14;3.00;;;2.20;;
938;SDS011;456;53.584;9.968;2023-01-28T10:17:43;5.43;;;2.63;;
938;SDS011;456;53.584;9.968;2023-01-28T10:22:38;3.77;;;2.50;;
938;SDS011;456;53.584;9.968;2023-01-28T10:25:18;2.47;;;2.27;;
938;SDS011;456;53.584;9.968;2023-01-28T10:27:47;2.70;;;2.27;;
938;SDS011;456;53.584;9.968;2023-01-28T10:32:48;2.43;;;2.20;;
938;SDS011;456;53.584;9.968;2023-01-28T10:35:14;2.53;;;2.10;;
938;SDS011;456;53.584;9.968;2023-01-28T10:37:40;2.13;;;1.93;;
938;SDS011;456;53.584;9.968;2023-01-28T10:40:06;3.27;;;1.77;;
938;SDS011;456;53.584;9.968;2023-01-28T10:42:37;2.70;;;2.10;;
938;SDS011;456;53.584;9.968;2023-01-28T10:47:43;3.80;;;2.37;;
938;SDS011;456;53.584;9.968;2023-01-28T10:50:29;2.13;;;1.93;;
938;SDS011;456;53.584;9.968;2023-01-28T10:52:56;2.57;;;2.10;;
938;SDS011;456;53.584;9.968;2023-01-28T10:55:30;2.23;;;2.03;;
938;SDS011;456;53.584;9.968;2023-01-28T10:58:13;3.77;;;2.10;;
938;SDS011;456;53.584;9.968;2023-01-28T11:00:44;3.17;;;2.07;;
938;SDS011;456;53.584;9.968;2023-01-28T11:03:17;2.30;;;2.07;;
938;SDS011;456;53.584;9.968;2023-01-28T11:05:49;5.23;;;2.17;;
938;SDS011;456;53.584;9.968;2023-01-28T11:08:17;7.00;;;1.93;;
938;SDS011;456;53.584;9.968;2023-01-28T11:10:43;2.00;;;1.70;;
938;SDS011;456;53.584;9.968;2023-01-28T11:15:52;2.30;;;2.10;;
938;SDS011;456;53.584;9.968;2023-01-28T11:18:29;2.30;;;1.90;;
938;SDS011;456;53.584;9.968;2023-01-28T11:20:59;3.23;;;1.70;;
938;SDS011;456;53.584;9.968;2023-01-28T11:23:28;2.77;;;2.40;;
938;SDS011;456;53.584;9.968;2023-01-28T11:26:20;3.73;;;2.00;;
938;SDS011;456;53.584;9.968;2023-01-28T11:28:46;3.50;;;2.20;;
938;SDS011;456;53.584;9.968;2023-01-28T11:31:14;4.40;;;1.90;;
938;SDS011;456;53.584;9.968;2023-01-28T11:33:47;2.27;;;2.00;;
938;SDS011;456;53.584;9.968;2023-01-28T11:36:21;3.40;;;2.00;;
938;SDS011;456;53.584;9.968;2023-01-28T11:41:15;2.47;;;2.00;;
938;SDS011;456;53.584;9.968;2023-01-28T11:43:41;2.20;;;1.77;;
938;SDS011;456;53.584;9.968;2023-01-28T12:30:21;2.70;;;2.20;;
938;SDS011;456;53.584;9.968;2023-01-28T12:41:22;2.27;;;1.80;;
938;SDS011;456;53.584;9.968;2023-01-28T12:43:59;3.67;;;1.90;;
938;SDS011;456;53.584;9.968;2023-01-28T12:46:34;3.20;;;1.87;;
938;SDS011;456;53.584;9.968;2023-01-28T12:49:34;2.47;;;1.83;;
938;SDS011;456;53.584;9.968;2023-01-28T12:52:17;3.53;;;1.93;;
938;SDS011;456;53.584;9.968;2023-01-28T12:55:14;3.57;;;2.23;;
938;SDS011;456;53.584;9.968;2023-01-28T12:57:51;3.43;;;2.13;;
938;SDS011;456;53.584;9.968;2023-01-28T13:00:25;2.33;;;1.90;;
938;SDS011;456;53.584;9.968;2023-01-28T13:05:30;2.10;;;1.90;;
938;SDS011;456;53.584;9.968;2023-01-28T13:08:18;3.43;;;2.30;;
938;SDS011;456;53.584;9.968;2023-01-28T13:10:51;4.17;;;2.00;;
938;SDS011;456;53.584;9.968;2023-01-28T13:13:21;3.87;;;2.00;;
938;SDS011;456;53.584;9.968;2023-01-28T13:16:10;3.40;;;2.20;;
938;SDS011;456;53.584;9.968;2023-01-28T13:24:35;4.07;;;2.00;;
938;SDS011;456;53.584;9.968;2023-01-28T13:31:37;2.90;;;2.20;;
938;SDS011;456;53.584;9.968;2023-01-28T13:34:05;2.10;;;1.90;;
938;SDS011;456;53.584;9.968;2023-01-28T13:46:48;2.80;;;2.57;;
938;SDS011;456;53.584;9.968;2023-01-28T13:49:17;3.43;;;2.53;;
938;SDS011;456;53.584;9.968;2023-01-28T13:52:36;5.10;;;2.90;;
938;SDS011;456;53.584;9.968;2023-01-28T13:54:49;3.77;;;2.77;;
938;SDS011;456;53.584;9.968;2023-01-28T13:57:42;3.37;;;3.00;;
938;SDS011;456;53.584;9.968;2023-01-28T14:11:56;2.80;;;2.50;;
938;SDS011;456;53.584;9.968;2023-01-28T14:20:06;3.03;;;2.83;;
938;SDS011;456;53.584;9.968;2023-01-28T14:22:40;2.60;;;2.40;;
938;SDS011;456;53.584;9.968;2023-01-28T14:25:10;3.20;;;2.57;;
938;SDS011;456;53.584;9.968;2023-01-28T14:27:38;3.20;;;2.80;;
938;SDS011;456;53.584;9.968;2023-01-28T14:30:15;3.33;;;2.80;;
938;SDS011;456;53.584;9.968;2023-01-28T14:32:46;3.30;;;3.00;;
938;SDS011;456;53.584;9.968;2023-01-28T14:35:15;3.37;;;3.07;;
938;SDS011;456;53.584;9.968;2023-01-28T14:37:46;3.07;;;2.73;;
938;SDS011;456;53.584;9.968;2023-01-28T14:40:12;2.70;;;2.33;;
938;SDS011;456;53.584;9.968;2023-01-28T14:42:49;2.40;;;2.20;;
938;SDS011;456;53.584;9.968;2023-01-28T14:45:22;3.50;;;2.77;;
938;SDS011;456;53.584;9.968;2023-01-28T14:51:14;2.87;;;2.67;;
938;SDS011;456;53.584;9.968;2023-01-28T14:56:45;2.80;;;2.60;;
938;SDS011;456;53.584;9.968;2023-01-28T14:59:27;5.10;;;3.17;;
938;SDS011;456;53.584;9.968;2023-01-28T15:02:09;2.80;;;2.60;;
938;SDS011;456;53.584;9.968;2023-01-28T15:04:43;3.20;;;2.90;;
938;SDS011;456;53.584;9.968;2023-01-28T15:07:22;3.03;;;2.73;;
938;SDS011;456;53.584;9.968;2023-01-28T15:10:06;3.13;;;2.83;;
938;SDS011;456;53.584;9.968;2023-01-28T15:12:40;3.33;;;3.07;;
938;SDS011;456;53.584;9.968;2023-01-28T15:17:53;3.03;;;2.80;;
938;SDS011;456;53.584;9.968;2023-01-28T15:20:25;3.03;;;2.73;;
938;SDS011;456;53.584;9.968;2023-01-28T15:22:52;3.50;;;3.20;;
938;SDS011;456;53.584;9.968;2023-01-28T15:25:19;3.30;;;3.00;;
938;SDS011;456;53.584;9.968;2023-01-28T15:27:46;3.03;;;2.83;;
938;SDS011;456;53.584;9.968;2023-01-28T15:30:21;3.27;;;2.90;;
938;SDS011;456;53.584;9.968;2023-01-28T15:33:22;3.20;;;3.00;;
938;SDS011;456;53.584;9.968;2023-01-28T15:35:47;3.00;;;2.80;;
938;SDS011;456;53.584;9.968;2023-01-28T15:38:15;2.97;;;2.70;;
938;SDS011;456;53.584;9.968;2023-01-28T15:40:48;2.97;;;2.70;;
938;SDS011;456;53.584;9.968;2023-01-28T15:43:20;3.90;;;3.60;;
938;SDS011;456;53.584;9.968;2023-01-28T15:45:48;3.40;;;3.10;;
938;SDS011;456;53.584;9.968;2023-01-28T15:48:19;3.20;;;2.90;;
938;SDS011;456;53.584;9.968;2023-01-28T15:50:46;4.03;;;3.50;;
938;SDS011;456;53.584;9.968;2023-01-28T15:53:12;3.27;;;2.97;;
938;SDS011;456;53.584;9.968;2023-01-28T15:55:40;2.83;;;2.63;;
938;SDS011;456;53.584;9.968;2023-01-28T15:58:08;3.97;;;3.67;;
938;SDS011;456;53.584;9.968;2023-01-28T16:00:42;2.80;;;2.60;;
938;SDS011;456;53.584;9.968;2023-01-28T16:03:08;4.73;;;3.40;;
938;SDS011;456;53.584;9.968;2023-01-28T16:05:38;3.57;;;3.27;;
938;SDS011;456;53.584;9.968;2023-01-28T16:08:17;3.30;;;3.10;;
938;SDS011;456;53.584;9.968;2023-01-28T16:11:08;2.83;;;2.60;;
938;SDS011;456;53.584;9.968;2023-01-28T16:13:34;3.13;;;2.93;;
938;SDS011;456;53.584;9.968;2023-01-28T16:16:06;3.40;;;3.10;;
938;SDS011;456;53.584;9.968;2023-01-28T16:18:40;3.60;;;3.40;;
938;SDS011;456;53.584;9.968;2023-01-28T16:21:07;3.63;;;3.30;;
938;SDS011;456;53.584;9.968;2023-01-28T16:23:36;3.37;;;3.17;;
938;SDS011;456;53.584;9.968;2023-01-28T16:26:18;3.80;;;3.60;;
938;SDS011;456;53.584;9.968;2023-01-28T16:28:46;3.60;;;3.30;;
938;SDS011;456;53.584;9.968;2023-01-28T16:31:11;3.00;;;2.80;;
938;SDS011;456;53.584;9.968;2023-01-28T16:33:37;3.23;;;2.93;;
938;SDS011;456;53.584;9.968;2023-01-28T16:36:03;3.33;;;3.03;;
938;SDS011;456;53.584;9.968;2023-01-28T16:38:29;3.27;;;2.97;;
938;SDS011;456;53.584;9.968;2023-01-28T16:40:54;3.73;;;3.43;;
938;SDS011;456;53.584;9.968;2023-01-28T16:43:20;3.47;;;3.20;;
938;SDS011;456;53.584;9.968;2023-01-28T16:45:46;3.00;;;2.80;;
938;SDS011;456;53.584;9.968;2023-01-28T16:48:12;3.63;;;3.40;;
938;SDS011;456;53.584;9.968;2023-01-28T16:50:41;3.40;;;3.10;;
938;SDS011;456;53.584;9.968;2023-01-28T16:53:17;3.30;;;3.00;;
938;SDS011;456;53.584;9.968;2023-01-28T16:55:51;3.10;;;2.90;;
938;SDS011;456;53.584;9.968;2023-01-28T16:58:21;3.50;;;3.20;;
938;SDS011;456;53.584;9.968;2023-01-28T17:00:49;3.63;;;3.37;;
938;SDS011;456;53.584;9.968;2023-01-28T17:03:14;3.47;;;2.97;;
938;SDS011;456;53.584;9.968;2023-01-28T17:05:40;3.17;;;2.97;;
938;SDS011;456;53.584;9.968;2023-01-28T17:08:06;3.70;;;3.40;;
938;SDS011;456;53.584;9.968;2023-01-28T17:10:31;4.17;;;3.80;;
938;SDS011;456;53.584;9.968;2023-01-28T17:12:57;3.83;;;3.43;;
938;SDS011;456;53.584;9.968;2023-01-28T17:15:23;3.37;;;3.17;;
938;SDS011;456;53.584;9.968;2023-01-28T17:17:49;3.40;;;3.10;;
938;SDS011;456;53.584;9.968;2023-01-28T17:20:17;3.23;;;3.00;;
938;SDS011;456;53.584;9.968;2023-01-28T17:22:43;3.57;;;3.30;;
938;SDS011;456;53.584;9.968;2023-01-28T17:25:09;3.50;;;3.30;;
938;SDS011;456;53.584;9.968;2023-01-28T17:27:35;4.10;;;3.80;;
938;SDS011;456;53.584;9.968;2023-01-28T17:30:00;3.77;;;3.47;;
938;SDS011;456;53.584;9.968;2023-01-28T17:32:26;3.77;;;3.47;;
938;SDS011;456;53.584;9.968;2023-01-28T17:34:52;4.07;;;3.77;;
938;SDS011;456;53.584;9.968;2023-01-28T17:37:18;3.60;;;3.30;;
938;SDS011;456;53.584;9.968;2023-01-28T17:39:43;3.70;;;3.40;;
938;SDS011;456;53.584;9.968;2023-01-28T17:42:09;4.50;;;4.10;;
938;SDS011;456;53.584;9.968;2023-01-28T17:44:34;4.10;;;3.80;;
938;SDS011;456;53.584;9.968;2023-01-28T17:47:00;3.73;;;3.43;;
938;SDS011;456;53.584;9.968;2023-01-28T17:49:25;3.47;;;3.17;;
938;SDS011;456;53.584;9.968;2023-01-28T17:51:51;4.40;;;4.10;;
938;SDS011;456;53.584;9.968;2023-01-28T17:54:17;4.20;;;3.80;;
938;SDS011;456;53.584;9.968;2023-01-28T17:56:43;3.47;;;3.17;;
938;SDS011;456;53.584;9.968;2023-01-28T17:59:08;4.13;;;3.83;;
938;SDS011;456;53.584;9.968;2023-01-28T18:01:35;4.03;;;3.70;;
938;SDS011;456;53.584;9.968;2023-01-28T18:04:02;4.17;;;3.30;;
938;SDS011;456;53.584;9.968;2023-01-28T18:06:29;4.63;;;4.27;;
938;SDS011;456;53.584;9.968;2023-01-28T18:09:00;4.87;;;4.47;;
938;SDS011;456;53.584;9.968;2023-01-28T18:11:27;5.07;;;4.67;;
938;SDS011;456;53.584;9.968;2023-01-28T18:13:53;4.63;;;4.10;;
938;SDS011;456;53.584;9.968;2023-01-28T18:16:19;4.30;;;4.00;;
938;SDS011;456;53.584;9.968;2023-01-28T18:18:45;4.70;;;4.30;;
938;SDS011;456;53.584;9.968;2023-01-28T18:21:29;4.63;;;4.23;;
938;SDS011;456;53.584;9.968;2023-01-28T18:23:56;4.70;;;4.30;;
938;SDS011;456;53.584;9.968;2023-01-28T18:26:21;4.43;;;4.13;;
938;SDS011;456;53.584;9.968;2023-01-28T18:28:47;4.83;;;4.43;;
938;SDS011;456;53.584;9.968;2023-01-28T18:31:13;4.20;;;3.90;;
938;SDS011;456;53.584;9.968;2023-01-28T18:33:39;4.57;;;4.07;;